Hanalei, HI

2:53 AM HST on September 27, 2016 (GMT -1000)
North Shore of Kauai | | Change Station

Elev 200 ft 22.23 °N, 159.48 °W | Updated 10 seconds ago

Scattered Clouds
Scattered Clouds
74.1 °F
Feels Like 72 °F
N
3.6
Wind Variable Wind from SE
Gusts 3.6 mph

Today
High -- | Low -- °F
--% Chance of Precip.
Yesterday
High -- | Low -- °F
Precip. -- in
Pressure 29.99 in
Visibility 10.0 miles
Clouds Few 2400 ft
Scattered Clouds 3800 ft
Scattered Clouds 4500 ft
Heat Index 72 °F
Dew Point 71 °F
Humidity 90%
Rainfall 0.00 in
Snow Depth Not available.
6:28 AM 6:28 PM
Waning Crescent, 12% visible
METAR PHLI 271153Z 06012KT 10SM FEW024 SCT038 SCT045 26/20 A3000 RMK AO2 RAB11E20 SLP156 P0000 60000 70001 T02560200 10267 20256 58017
Pressure 29.99 in
Visibility 10.0 miles
Clouds Few 2400 ft
Scattered Clouds 3800 ft
Scattered Clouds 4500 ft
Heat Index 72 °F
Dew Point 71 °F
Humidity 90%
Rainfall 0.00 in
Snow Depth Not available.
6:28 AM 6:28 PM
Waning Crescent, 12% visible
METAR PHLI 271153Z 06012KT 10SM FEW024 SCT038 SCT045 26/20 A3000 RMK AO2 RAB11E20 SLP156 P0000 60000 70001 T02560200 10267 20256 58017

10-Day Weather Forecast

Almanac

Astronomy

Sep. 27, 2016 Rise Set
Actual Time
Civil Twilight
Nautical Twilight
Astronomical Twilight
Moon
Length of Visible Light
Length of Day
Tomorrow will be .
, % of the Moon is Illuminated

Today's Extremes

State Highs State Lows

Community

WunderPhotos

Upload Photos

1,942,074 photos uploaded!

WunderBlog® & News

Nearby

Air Quality

  Air Quality AQ Index Pollutant
Not available.

Snow Depth

Station Depth Elevation

Earthquake Activity

City Distance Mag. Time & Date
Minimum magnitude displayed is 2.5.

Coastal Water Temperatures

Place Temperature

Stations

Nearby Weather Stations

Station Location Temp. Windchill Dew Point Humidity Wind Precip. Elev Updated Type
                   

Watches & Warnings

There are currently no watches in effect.